Millboro, VA (24460)

7:53 AM EDT on July 04, 2015 (GMT -0400)
Mountain Meadow Farm | | Change Station
CLOSE
Current Station
Personal Weather Station
Location: Goshen, VA
Elevation: 1532 ft
Nearby Weather Stations

Elev 1532 ft 38.05 °N, 79.48 °W | Updated 8 minutes ago

Overcast
Overcast
65.2 °F
Feels Like 65.2 °F
N
0.0
Wind Variable Wind from WNW
Gusts 0.0 mph

Today
High -- | Low -- °F
--% Chance of Precip.
Yesterday
High -- | Low -- °F
Precip. -- in
6:01 AM 8:44 PM
Waning Gibbous, 92% visible
Pressure 29.98 in
Visibility 7.0 miles
Clouds Scattered Clouds 300 ft
Mostly Cloudy 1700 ft
Overcast 2300 ft
Dew Point 65 °F
Humidity 98%
Rainfall 0.17 in
Snow Depth Not available.
UV 0 out of 12
Pollen .50 out of 12
Air Quality Not available.
Flu Activity Not available.
METAR KLWB 041135Z AUTO 23005KT 7SM SCT003 BKN017 OVC023 19/18 A2998 RMK AO2 T01920180

More Conditions Fewer Conditions

Pressure 29.98 in
Visibility 7.0 miles
Clouds Scattered Clouds 300 ft
Mostly Cloudy 1700 ft
Overcast 2300 ft
Dew Point 65 °F
Humidity 98%
Rainfall 0.17 in
Snow Depth Not available.
UV 0 out of 12
Pollen .50 out of 12
Air Quality Not available.
Flu Activity Not available.
METAR KLWB 041135Z AUTO 23005KT 7SM SCT003 BKN017 OVC023 19/18 A2998 RMK AO2 T01920180

More Conditions Fewer Conditions

10-Day Weather Forecast

×

Almanac

Astronomy

Jul. 04, 2015 Rise Set
Actual Time
Civil Twilight
Nautical Twilight
Astronomical Twilight
Moon
Length of Visible Light
Length of Day
Tomorrow will be .
, % of the Moon is Illuminated

Today's Extremes

State Highs State Lows

Community

WunderPhotos

Upload Photos

1,834,939 photos uploaded!

WunderBlogs® & News

Nearby

Air Quality

  Air Quality AQ Index Pollutant
Not available.

Snow Depth

Station Depth Elevation

Earthquake Activity

City Distance Mag. Time & Date
Minimum magnitude displayed is 2.5.

Coastal Water Temperatures

Place Temperature

Stations

Nearby Weather Stations

Station Location Temp. Windchill Dew Point Humidity Wind Precip. Elev Updated Type